sensor_id;sensor_type;location;lat;lon;timestamp;pressure;altitude;pressure_sealevel;temperature;humidity
65756;BME280;52489;47.502;18.940;2023-02-12T00:00:31;99360.84;;;2.85;86.22
65756;BME280;52489;47.502;18.940;2023-02-12T00:01:34;99341.16;;;2.84;86.31
65756;BME280;52489;47.502;18.940;2023-02-12T00:02:37;99336.97;;;2.83;86.06
65756;BME280;52489;47.502;18.940;2023-02-12T00:03:41;99340.16;;;2.85;85.92
65756;BME280;52489;47.502;18.940;2023-02-12T00:04:46;99340.16;;;2.85;85.76
65756;BME280;52489;47.502;18.940;2023-02-12T00:05:49;99348.16;;;2.77;85.73
65756;BME280;52489;47.502;18.940;2023-02-12T00:06:52;99350.41;;;2.73;86.01
65756;BME280;52489;47.502;18.940;2023-02-12T00:07:55;99357.75;;;2.77;86.45
65756;BME280;52489;47.502;18.940;2023-02-12T00:08:58;99366.09;;;2.79;86.59
65756;BME280;52489;47.502;18.940;2023-02-12T00:10:02;99363.50;;;2.79;86.77
65756;BME280;52489;47.502;18.940;2023-02-12T00:11:09;99362.91;;;2.77;87.07
65756;BME280;52489;47.502;18.940;2023-02-12T00:12:12;99366.09;;;2.79;87.13
65756;BME280;52489;47.502;18.940;2023-02-12T00:13:15;99364.12;;;2.74;87.19
65756;BME280;52489;47.502;18.940;2023-02-12T00:14:18;99365.31;;;2.78;87.04
65756;BME280;52489;47.502;18.940;2023-02-12T00:15:21;99375.00;;;2.83;86.95
65756;BME280;52489;47.502;18.940;2023-02-12T00:16:27;99367.87;;;2.78;87.43
65756;BME280;52489;47.502;18.940;2023-02-12T00:17:30;99360.53;;;2.75;87.54
65756;BME280;52489;47.502;18.940;2023-02-12T00:18:33;99357.94;;;2.75;87.39
65756;BME280;52489;47.502;18.940;2023-02-12T00:19:36;99355.94;;;2.77;87.25
65756;BME280;52489;47.502;18.940;2023-02-12T00:20:39;99362.31;;;2.74;87.23
65756;BME280;52489;47.502;18.940;2023-02-12T00:21:43;99362.13;;;2.76;87.58
65756;BME280;52489;47.502;18.940;2023-02-12T00:22:46;99359.19;;;2.66;87.83
65756;BME280;52489;47.502;18.940;2023-02-12T00:23:49;99362.31;;;2.74;87.95
65756;BME280;52489;47.502;18.940;2023-02-12T00:24:51;99359.00;;;2.67;88.15
65756;BME280;52489;47.502;18.940;2023-02-12T00:25:54;99364.78;;;2.63;88.33
65756;BME280;52489;47.502;18.940;2023-02-12T00:26:58;99361.22;;;2.64;88.45
65756;BME280;52489;47.502;18.940;2023-02-12T00:28:01;99368.75;;;2.65;88.67
65756;BME280;52489;47.502;18.940;2023-02-12T00:29:04;99369.00;;;2.64;89.07
65756;BME280;52489;47.502;18.940;2023-02-12T00:30:08;99372.12;;;2.72;88.95
65756;BME280;52489;47.502;18.940;2023-02-12T00:31:17;99374.41;;;2.81;88.59
65756;BME280;52489;47.502;18.940;2023-02-12T00:32:21;99365.69;;;2.75;88.40
65756;BME280;52489;47.502;18.940;2023-02-12T00:33:24;99370.56;;;2.65;88.86
65756;BME280;52489;47.502;18.940;2023-02-12T00:34:27;99374.31;;;2.69;89.24
65756;BME280;52489;47.502;18.940;2023-02-12T00:35:31;99367.56;;;2.68;89.14
65756;BME280;52489;47.502;18.940;2023-02-12T00:36:34;99361.00;;;2.65;89.31
65756;BME280;52489;47.502;18.940;2023-02-12T00:37:37;99365.75;;;2.68;89.17
65756;BME280;52489;47.502;18.940;2023-02-12T00:38:40;99358.63;;;2.64;89.16
65756;BME280;52489;47.502;18.940;2023-02-12T00:39:43;99371.03;;;2.55;89.52
65756;BME280;52489;47.502;18.940;2023-02-12T00:40:46;99370.25;;;2.55;89.67
65756;BME280;52489;47.502;18.940;2023-02-12T00:41:49;99364.97;;;2.68;89.16
65756;BME280;52489;47.502;18.940;2023-02-12T00:42:52;99371.34;;;2.65;89.47
65756;BME280;52489;47.502;18.940;2023-02-12T00:43:55;99357.12;;;2.81;88.84
65756;BME280;52489;47.502;18.940;2023-02-12T00:44:59;99368.03;;;2.83;88.90
65756;BME280;52489;47.502;18.940;2023-02-12T00:46:03;99349.50;;;2.86;88.71
65756;BME280;52489;47.502;18.940;2023-02-12T00:47:06;99363.28;;;2.80;89.12
65756;BME280;52489;47.502;18.940;2023-02-12T00:48:10;99358.47;;;2.84;89.08
65756;BME280;52489;47.502;18.940;2023-02-12T00:49:13;99358.25;;;2.85;88.66
65756;BME280;52489;47.502;18.940;2023-02-12T00:50:16;99360.25;;;2.83;89.10
65756;BME280;52489;47.502;18.940;2023-02-12T00:51:19;99361.06;;;2.84;89.01
65756;BME280;52489;47.502;18.940;2023-02-12T00:52:22;99368.09;;;2.77;89.33
65756;BME280;52489;47.502;18.940;2023-02-12T00:53:26;99357.38;;;2.73;89.69
65756;BME280;52489;47.502;18.940;2023-02-12T00:54:29;99359.97;;;2.73;89.42
65756;BME280;52489;47.502;18.940;2023-02-12T00:55:33;99363.59;;;2.65;89.72
65756;BME280;52489;47.502;18.940;2023-02-12T00:56:37;99365.19;;;2.66;90.00
65756;BME280;52489;47.502;18.940;2023-02-12T00:57:40;99365.97;;;2.67;90.12
65756;BME280;52489;47.502;18.940;2023-02-12T00:58:44;99366.09;;;2.79;89.54
65756;BME280;52489;47.502;18.940;2023-02-12T00:59:47;99363.69;;;2.77;89.52
65756;BME280;52489;47.502;18.940;2023-02-12T01:00:51;99354.66;;;2.86;89.26
65756;BME280;52489;47.502;18.940;2023-02-12T01:01:54;99364.06;;;2.81;89.17
65756;BME280;52489;47.502;18.940;2023-02-12T01:02:58;99362.81;;;2.65;89.69
65756;BME280;52489;47.502;18.940;2023-02-12T01:04:01;99360.44;;;2.63;90.22
65756;BME280;52489;47.502;18.940;2023-02-12T01:05:04;99360.84;;;2.85;89.44
65756;BME280;52489;47.502;18.940;2023-02-12T01:06:07;99369.47;;;2.79;89.23
65756;BME280;52489;47.502;18.940;2023-02-12T01:07:11;99358.41;;;2.65;89.70
65756;BME280;52489;47.502;18.940;2023-02-12T01:08:15;99369.66;;;2.53;89.90
65756;BME280;52489;47.502;18.940;2023-02-12T01:09:18;99361.66;;;2.54;90.31
65756;BME280;52489;47.502;18.940;2023-02-12T01:10:22;99362.69;;;2.53;90.47
65756;BME280;52489;47.502;18.940;2023-02-12T01:11:25;99374.47;;;2.49;90.67
65756;BME280;52489;47.502;18.940;2023-02-12T01:12:28;99370.28;;;2.48;90.84
65756;BME280;52489;47.502;18.940;2023-02-12T01:13:32;99373.41;;;2.57;90.65
65756;BME280;52489;47.502;18.940;2023-02-12T01:14:35;99371.47;;;2.77;90.13
65756;BME280;52489;47.502;18.940;2023-02-12T01:15:39;99365.56;;;2.70;89.93
65756;BME280;52489;47.502;18.940;2023-02-12T01:16:43;99357.78;;;2.70;90.14
65756;BME280;52489;47.502;18.940;2023-02-12T01:17:46;99358.22;;;2.67;90.46
65756;BME280;52489;47.502;18.940;2023-02-12T01:18:50;99356.47;;;2.61;90.37
65756;BME280;52489;47.502;18.940;2023-02-12T01:19:57;99348.06;;;2.65;90.09
65756;BME280;52489;47.502;18.940;2023-02-12T01:21:00;99338.78;;;2.58;90.19
65756;BME280;52489;47.502;18.940;2023-02-12T01:22:04;99350.75;;;2.52;90.61
65756;BME280;52489;47.502;18.940;2023-02-12T01:23:07;99343.63;;;2.47;90.85
65756;BME280;52489;47.502;18.940;2023-02-12T01:24:10;99350.41;;;2.42;91.30
65756;BME280;52489;47.502;18.940;2023-02-12T01:25:13;99336.88;;;2.46;90.94
65756;BME280;52489;47.502;18.940;2023-02-12T01:26:17;99355.16;;;2.52;90.78
65756;BME280;52489;47.502;18.940;2023-02-12T01:27:20;99341.62;;;2.49;91.07
65756;BME280;52489;47.502;18.940;2023-02-12T01:28:24;99343.97;;;2.58;90.86
65756;BME280;52489;47.502;18.940;2023-02-12T01:29:27;99331.81;;;2.58;90.45
65756;BME280;52489;47.502;18.940;2023-02-12T01:30:30;99347.00;;;2.48;91.13
65756;BME280;52489;47.502;18.940;2023-02-12T01:31:37;99350.00;;;2.45;91.18
65756;BME280;52489;47.502;18.940;2023-02-12T01:32:40;99351.63;;;2.39;91.40
65756;BME280;52489;47.502;18.940;2023-02-12T01:33:47;99350.06;;;2.38;90.70
65756;BME280;52489;47.502;18.940;2023-02-12T01:34:50;99355.28;;;2.32;91.43
65756;BME280;52489;47.502;18.940;2023-02-12T01:35:54;99358.47;;;2.27;92.15
65756;BME280;52489;47.502;18.940;2023-02-12T01:36:58;99360.63;;;2.37;91.28
65756;BME280;52489;47.502;18.940;2023-02-12T01:38:01;99354.69;;;2.30;91.29
65756;BME280;52489;47.502;18.940;2023-02-12T01:39:05;99359.84;;;2.30;91.38
65756;BME280;52489;47.502;18.940;2023-02-12T01:40:10;99361.84;;;2.27;91.45
65756;BME280;52489;47.502;18.940;2023-02-12T01:41:25;99370.00;;;2.24;91.46
65756;BME280;52489;47.502;18.940;2023-02-12T01:42:29;99357.91;;;2.25;92.21
65756;BME280;52489;47.502;18.940;2023-02-12T01:43:33;99359.66;;;2.24;92.19
65756;BME280;52489;47.502;18.940;2023-02-12T01:44:43;99360.09;;;2.21;91.71
65756;BME280;52489;47.502;18.940;2023-02-12T01:45:49;99361.59;;;2.36;91.82
65756;BME280;52489;47.502;18.940;2023-02-12T01:47:03;99358.53;;;2.45;91.79
65756;BME280;52489;47.502;18.940;2023-02-12T01:48:07;99358.41;;;2.34;92.13
65756;BME280;52489;47.502;18.940;2023-02-12T01:49:15;99355.28;;;2.32;92.23
65756;BME280;52489;47.502;18.940;2023-02-12T01:50:19;99357.84;;;2.32;92.08
65756;BME280;52489;47.502;18.940;2023-02-12T01:51:23;99350.50;;;2.28;92.32
65756;BME280;52489;47.502;18.940;2023-02-12T01:52:33;99349.56;;;2.23;92.60
65756;BME280;52489;47.502;18.940;2023-02-12T01:53:42;99353.16;;;2.15;92.74
65756;BME280;52489;47.502;18.940;2023-02-12T01:54:47;99346.25;;;2.09;93.21
65756;BME280;52489;47.502;18.940;2023-02-12T01:55:55;99352.41;;;2.08;93.19
65756;BME280;52489;47.502;18.940;2023-02-12T01:57:02;99349.47;;;2.04;93.40
65756;BME280;52489;47.502;18.940;2023-02-12T01:58:06;99345.25;;;2.10;92.73
65756;BME280;52489;47.502;18.940;2023-02-12T01:59:11;99346.72;;;1.93;93.47
65756;BME280;52489;47.502;18.940;2023-02-12T02:00:19;99336.59;;;1.91;93.37
65756;BME280;52489;47.502;18.940;2023-02-12T02:01:26;99344.56;;;1.90;93.71
65756;BME280;52489;47.502;18.940;2023-02-12T02:02:30;99347.75;;;1.85;94.17
65756;BME280;52489;47.502;18.940;2023-02-12T02:03:36;99339.81;;;1.87;94.32
65756;BME280;52489;47.502;18.940;2023-02-12T02:04:47;99339.59;;;1.88;94.15
65756;BME280;52489;47.502;18.940;2023-02-12T02:06:00;99342.75;;;1.90;93.21
65756;BME280;52489;47.502;18.940;2023-02-12T02:07:07;99349.16;;;1.81;93.70
65756;BME280;52489;47.502;18.940;2023-02-12T02:08:13;99342.03;;;1.76;94.23
65756;BME280;52489;47.502;18.940;2023-02-12T02:09:18;99336.41;;;1.86;94.50
65756;BME280;52489;47.502;18.940;2023-02-12T02:10:21;99331.94;;;2.07;94.15
65756;BME280;52489;47.502;18.940;2023-02-12T02:11:24;99331.19;;;1.99;94.36
65756;BME280;52489;47.502;18.940;2023-02-12T02:12:46;99333.41;;;1.89;95.21
65756;BME280;52489;47.502;18.940;2023-02-12T02:14:08;99329.22;;;1.95;95.30
65756;BME280;52489;47.502;18.940;2023-02-12T02:15:30;99325.22;;;1.99;95.25
65756;BME280;52489;47.502;18.940;2023-02-12T02:16:34;99324.63;;;1.97;95.17
65756;BME280;52489;47.502;18.940;2023-02-12T02:19:18;99325.16;;;2.12;95.02
65756;BME280;52489;47.502;18.940;2023-02-12T02:22:21;99327.16;;;2.10;95.08
65756;BME280;52489;47.502;18.940;2023-02-12T02:27:55;99318.47;;;2.30;95.46
65756;BME280;52489;47.502;18.940;2023-02-12T02:32:30;99321.06;;;2.30;95.53
65756;BME280;52489;47.502;18.940;2023-02-12T02:34:41;99323.94;;;2.15;95.92
65756;BME280;52489;47.502;18.940;2023-02-12T02:35:28;99325.91;;;2.19;96.17
65756;BME280;52489;47.502;18.940;2023-02-12T02:36:44;99320.53;;;2.21;96.19
65756;BME280;52489;47.502;18.940;2023-02-12T02:38:17;99331.50;;;2.16;96.29
65756;BME280;52489;47.502;18.940;2023-02-12T02:39:27;99331.28;;;2.18;96.34
65756;BME280;52489;47.502;18.940;2023-02-12T02:40:48;99325.91;;;2.19;96.08
65756;BME280;52489;47.502;18.940;2023-02-12T02:42:22;99327.94;;;2.11;96.35
65756;BME280;52489;47.502;18.940;2023-02-12T02:43:34;99333.06;;;2.17;96.11
65756;BME280;52489;47.502;18.940;2023-02-12T02:45:58;99336.63;;;2.23;95.61
65756;BME280;52489;47.502;18.940;2023-02-12T02:47:07;99343.97;;;2.26;95.49
65756;BME280;52489;47.502;18.940;2023-02-12T02:48:20;99346.97;;;2.23;95.31
65756;BME280;52489;47.502;18.940;2023-02-12T02:49:53;99352.38;;;2.15;95.47
65756;BME280;52489;47.502;18.940;2023-02-12T02:51:03;99359.81;;;2.04;96.03
65756;BME280;52489;47.502;18.940;2023-02-12T02:52:13;99371.91;;;2.04;95.91
65756;BME280;52489;47.502;18.940;2023-02-12T02:53:30;99361.19;;;2.00;96.15
65756;BME280;52489;47.502;18.940;2023-02-12T02:54:45;99371.53;;;2.00;96.37
65756;BME280;52489;47.502;18.940;2023-02-12T02:55:53;99371.53;;;2.00;96.16
65756;BME280;52489;47.502;18.940;2023-02-12T02:57:34;99376.28;;;2.10;95.89
65756;BME280;52489;47.502;18.940;2023-02-12T02:58:50;99368.37;;;1.98;95.69
65756;BME280;52489;47.502;18.940;2023-02-12T03:00:03;99373.50;;;2.05;95.96
65756;BME280;52489;47.502;18.940;2023-02-12T03:01:23;99373.47;;;2.12;96.41
65756;BME280;52489;47.502;18.940;2023-02-12T03:02:33;99372.31;;;2.08;96.96
65756;BME280;52489;47.502;18.940;2023-02-12T03:03:51;99366.72;;;2.11;96.60
65756;BME280;52489;47.502;18.940;2023-02-12T03:06:29;99376.87;;;2.05;96.64
65756;BME280;52489;47.502;18.940;2023-02-12T03:10:43;99373.66;;;2.17;96.00
65756;BME280;52489;47.502;18.940;2023-02-12T03:11:48;99376.78;;;2.25;95.73
65756;BME280;52489;47.502;18.940;2023-02-12T03:13:32;99379.97;;;2.21;95.59
65756;BME280;52489;47.502;18.940;2023-02-12T03:14:41;99379.81;;;2.16;95.89
65756;BME280;52489;47.502;18.940;2023-02-12T03:16:12;99393.91;;;2.20;96.15
65756;BME280;52489;47.502;18.940;2023-02-12T03:17:28;99388.38;;;2.16;96.08
65756;BME280;52489;47.502;18.940;2023-02-12T03:18:44;99374.41;;;2.24;96.30
65756;BME280;52489;47.502;18.940;2023-02-12T03:19:57;99391.94;;;2.15;96.18
65756;BME280;52489;47.502;18.940;2023-02-12T03:21:10;99383.63;;;2.07;96.25
65756;BME280;52489;47.502;18.940;2023-02-12T03:22:18;99384.03;;;2.03;96.12
65756;BME280;52489;47.502;18.940;2023-02-12T03:23:30;99394.38;;;2.10;95.98
65756;BME280;52489;47.502;18.940;2023-02-12T03:24:45;99397.16;;;2.09;96.22
65756;BME280;52489;47.502;18.940;2023-02-12T03:26:00;99400.16;;;2.05;96.28
65756;BME280;52489;47.502;18.940;2023-02-12T03:28:18;99412.13;;;1.93;96.18
65756;BME280;52489;47.502;18.940;2023-02-12T03:29:22;99413.09;;;1.92;95.99
65756;BME280;52489;47.502;18.940;2023-02-12T03:30:41;99409.75;;;1.85;95.98
65756;BME280;52489;47.502;18.940;2023-02-12T03:33:53;99413.75;;;1.74;96.45
65756;BME280;52489;47.502;18.940;2023-02-12T03:35:13;99408.63;;;1.61;96.30
65756;BME280;52489;47.502;18.940;2023-02-12T03:36:32;99405.47;;;1.59;96.70
65756;BME280;52489;47.502;18.940;2023-02-12T03:40:46;99404.81;;;1.77;98.35
65756;BME280;52489;47.502;18.940;2023-02-12T03:42:15;99409.97;;;1.77;98.40
65756;BME280;52489;47.502;18.940;2023-02-12T03:43:31;99404.22;;;1.81;98.39
65756;BME280;52489;47.502;18.940;2023-02-12T03:44:52;99401.44;;;1.76;98.42
65756;BME280;52489;47.502;18.940;2023-02-12T03:46:13;99407.00;;;1.73;98.17
65756;BME280;52489;47.502;18.940;2023-02-12T03:49:00;99414.37;;;1.70;98.49
65756;BME280;52489;47.502;18.940;2023-02-12T03:50:16;99415.16;;;1.70;98.92
65756;BME280;52489;47.502;18.940;2023-02-12T03:51:41;99401.06;;;1.73;99.31
65756;BME280;52489;47.502;18.940;2023-02-12T03:52:46;99398.25;;;1.74;99.19
65756;BME280;52489;47.502;18.940;2023-02-12T03:53:51;99395.66;;;1.74;99.47
65756;BME280;52489;47.502;18.940;2023-02-12T03:54:54;99404.41;;;1.80;99.58
65756;BME280;52489;47.502;18.940;2023-02-12T03:56:08;99410.16;;;1.82;99.54
65756;BME280;52489;47.502;18.940;2023-02-12T03:57:18;99409.56;;;1.87;99.54
65756;BME280;52489;47.502;18.940;2023-02-12T03:58:25;99410.97;;;1.82;99.16
65756;BME280;52489;47.502;18.940;2023-02-12T03:59:29;99410.12;;;1.89;99.02
65756;BME280;52489;47.502;18.940;2023-02-12T04:00:33;99407.97;;;1.86;98.98
65756;BME280;52489;47.502;18.940;2023-02-12T04:01:36;99417.50;;;1.85;98.75
65756;BME280;52489;47.502;18.940;2023-02-12T04:02:40;99413.94;;;1.79;98.65
65756;BME280;52489;47.502;18.940;2023-02-12T04:03:44;99415.75;;;1.79;99.01
65756;BME280;52489;47.502;18.940;2023-02-12T04:04:47;99410.38;;;1.80;98.91
65756;BME280;52489;47.502;18.940;2023-02-12T04:05:50;99418.91;;;1.88;98.30
65756;BME280;52489;47.502;18.940;2023-02-12T04:06:53;99415.94;;;1.84;98.66
65756;BME280;52489;47.502;18.940;2023-02-12T04:07:58;99425.06;;;1.80;98.78
65756;BME280;52489;47.502;18.940;2023-02-12T04:09:05;99431.06;;;1.80;99.01
65756;BME280;52489;47.502;18.940;2023-02-12T04:10:10;99430.84;;;1.82;98.87
65756;BME280;52489;47.502;18.940;2023-02-12T04:13:15;99437.37;;;1.91;98.27
65756;BME280;52489;47.502;18.940;2023-02-12T04:14:40;99434.56;;;1.99;97.98
65756;BME280;52489;47.502;18.940;2023-02-12T04:16:19;99434.00;;;1.91;98.67
65756;BME280;52489;47.502;18.940;2023-02-12T04:18:41;99440.16;;;1.90;98.91
65756;BME280;52489;47.502;18.940;2023-02-12T04:24:15;99446.69;;;1.92;98.78
65756;BME280;52489;47.502;18.940;2023-02-12T04:26:46;99454.84;;;1.89;98.40
65756;BME280;52489;47.502;18.940;2023-02-12T04:28:31;99456.09;;;1.87;98.39
65756;BME280;52489;47.502;18.940;2023-02-12T04:32:37;99457.25;;;1.91;97.66
65756;BME280;52489;47.502;18.940;2023-02-12T04:33:53;99456.84;;;1.94;97.59
65756;BME280;52489;47.502;18.940;2023-02-12T04:35:25;99456.66;;;1.95;97.50
65756;BME280;52489;47.502;18.940;2023-02-12T04:36:34;99454.66;;;1.91;97.28
65756;BME280;52489;47.502;18.940;2023-02-12T04:37:43;99450.66;;;1.95;97.74
65756;BME280;52489;47.502;18.940;2023-02-12T04:38:54;99451.47;;;1.89;97.87
65756;BME280;52489;47.502;18.940;2023-02-12T04:40:03;99462.41;;;1.91;98.08
65756;BME280;52489;47.502;18.940;2023-02-12T04:41:08;99464.59;;;1.94;97.85
65756;BME280;52489;47.502;18.940;2023-02-12T04:42:11;99462.63;;;1.96;97.72
65756;BME280;52489;47.502;18.940;2023-02-12T04:43:25;99467.16;;;2.00;97.41
65756;BME280;52489;47.502;18.940;2023-02-12T04:44:31;99457.03;;;1.92;97.52
65756;BME280;52489;47.502;18.940;2023-02-12T04:45:36;99459.41;;;2.00;97.71
65756;BME280;52489;47.502;18.940;2023-02-12T04:46:40;99457.03;;;1.99;97.95
65756;BME280;52489;47.502;18.940;2023-02-12T04:47:43;99458.41;;;2.01;98.01
65756;BME280;52489;47.502;18.940;2023-02-12T04:48:57;99472.12;;;2.02;97.62
65756;BME280;52489;47.502;18.940;2023-02-12T04:50:01;99473.13;;;1.94;97.50
65756;BME280;52489;47.502;18.940;2023-02-12T04:51:04;99473.53;;;1.91;97.48
65756;BME280;52489;47.502;18.940;2023-02-12T04:52:08;99470.97;;;1.91;97.71
65756;BME280;52489;47.502;18.940;2023-02-12T04:53:11;99469.94;;;1.92;97.68
65756;BME280;52489;47.502;18.940;2023-02-12T04:54:15;99482.87;;;1.99;97.41
65756;BME280;52489;47.502;18.940;2023-02-12T04:55:18;99487.44;;;1.97;97.34
65756;BME280;52489;47.502;18.940;2023-02-12T04:56:21;99479.91;;;1.95;97.42
65756;BME280;52489;47.502;18.940;2023-02-12T04:57:24;99485.28;;;1.94;97.61
65756;BME280;52489;47.502;18.940;2023-02-12T04:58:28;99490.06;;;1.90;97.81
65756;BME280;52489;47.502;18.940;2023-02-12T04:59:31;99484.66;;;1.92;97.77
65756;BME280;52489;47.502;18.940;2023-02-12T05:00:34;99484.50;;;1.87;97.71
65756;BME280;52489;47.502;18.940;2023-02-12T05:01:38;99488.03;;;1.92;97.85
65756;BME280;52489;47.502;18.940;2023-02-12T05:02:42;99477.53;;;1.87;97.87
65756;BME280;52489;47.502;18.940;2023-02-12T05:03:44;99487.03;;;2.00;97.93
65756;BME280;52489;47.502;18.940;2023-02-12T05:04:49;99492.84;;;1.95;97.32
65756;BME280;52489;47.502;18.940;2023-02-12T05:05:52;99489.84;;;1.92;97.51
65756;BME280;52489;47.502;18.940;2023-02-12T05:06:56;99495.63;;;1.87;97.60
65756;BME280;52489;47.502;18.940;2023-02-12T05:07:59;99486.50;;;1.85;97.98
65756;BME280;52489;47.502;18.940;2023-02-12T05:09:03;99478.72;;;1.91;98.14
65756;BME280;52489;47.502;18.940;2023-02-12T05:10:07;99480.13;;;1.87;98.45
65756;BME280;52489;47.502;18.940;2023-02-12T05:11:11;99477.50;;;1.94;98.82
65756;BME280;52489;47.502;18.940;2023-02-12T05:12:14;99486.66;;;1.96;98.85
65756;BME280;52489;47.502;18.940;2023-02-12T05:13:17;99483.84;;;1.98;98.86
65756;BME280;52489;47.502;18.940;2023-02-12T05:14:23;99490.81;;;1.97;99.17
65756;BME280;52489;47.502;18.940;2023-02-12T05:15:26;99494.78;;;2.00;99.16
65756;BME280;52489;47.502;18.940;2023-02-12T05:16:29;99489.03;;;2.04;98.99
65756;BME280;52489;47.502;18.940;2023-02-12T05:17:32;99499.56;;;2.03;98.93
65756;BME280;52489;47.502;18.940;2023-02-12T05:18:35;99501.72;;;2.06;98.80
65756;BME280;52489;47.502;18.940;2023-02-12T05:19:38;99498.97;;;2.01;98.87
65756;BME280;52489;47.502;18.940;2023-02-12T05:20:41;99496.19;;;2.02;98.79
65756;BME280;52489;47.502;18.940;2023-02-12T05:21:44;99497.59;;;1.98;98.93
65756;BME280;52489;47.502;18.940;2023-02-12T05:22:51;99505.53;;;1.97;99.08
65756;BME280;52489;47.502;18.940;2023-02-12T05:23:54;99502.12;;;2.03;99.23
65756;BME280;52489;47.502;18.940;2023-02-12T05:24:57;99510.91;;;2.02;98.93
65756;BME280;52489;47.502;18.940;2023-02-12T05:26:02;99517.44;;;1.98;99.28
65756;BME280;52489;47.502;18.940;2023-02-12T05:27:06;99517.44;;;2.11;98.96
65756;BME280;52489;47.502;18.940;2023-02-12T05:28:10;99507.50;;;2.08;98.67
65756;BME280;52489;47.502;18.940;2023-02-12T05:29:14;99516.44;;;2.05;98.75
65756;BME280;52489;47.502;18.940;2023-02-12T05:30:17;99530.16;;;2.13;98.75
65756;BME280;52489;47.502;18.940;2023-02-12T05:31:20;99530.56;;;2.16;98.17
65756;BME280;52489;47.502;18.940;2023-02-12T05:32:24;99529.75;;;2.16;98.03
65756;BME280;52489;47.502;18.940;2023-02-12T05:33:27;99531.34;;;2.17;97.92
65756;BME280;52489;47.502;18.940;2023-02-12T05:34:30;99523.63;;;2.10;98.10
65756;BME280;52489;47.502;18.940;2023-02-12T05:35:36;99524.41;;;2.11;98.22
65756;BME280;52489;47.502;18.940;2023-02-12T05:36:39;99526.78;;;2.12;98.05
65756;BME280;52489;47.502;18.940;2023-02-12T05:37:43;99526.19;;;2.03;98.49
65756;BME280;52489;47.502;18.940;2023-02-12T05:38:46;99530.97;;;2.00;98.43
65756;BME280;52489;47.502;18.940;2023-02-12T05:39:50;99535.75;;;2.03;98.50
65756;BME280;52489;47.502;18.940;2023-02-12T05:40:52;99534.16;;;2.02;98.43
65756;BME280;52489;47.502;18.940;2023-02-12T05:41:55;99535.75;;;2.03;98.64
65756;BME280;52489;47.502;18.940;2023-02-12T05:42:58;99538.72;;;2.07;98.81
65756;BME280;52489;47.502;18.940;2023-02-12T05:44:03;99545.50;;;2.08;98.65
65756;BME280;52489;47.502;18.940;2023-02-12T05:45:06;99549.22;;;2.18;98.44
65756;BME280;52489;47.502;18.940;2023-02-12T05:46:10;99542.66;;;2.16;97.90
65756;BME280;52489;47.502;18.940;2023-02-12T05:47:13;99550.66;;;2.08;98.09
65756;BME280;52489;47.502;18.940;2023-02-12T05:48:16;99552.44;;;2.00;98.50
65756;BME280;52489;47.502;18.940;2023-02-12T05:49:19;99548.06;;;2.01;98.74
65756;BME280;52489;47.502;18.940;2023-02-12T05:50:22;99548.88;;;2.01;98.55
65756;BME280;52489;47.502;18.940;2023-02-12T05:51:26;99544.69;;;2.14;98.25
65756;BME280;52489;47.502;18.940;2023-02-12T05:52:29;99548.06;;;2.08;98.11
65756;BME280;52489;47.502;18.940;2023-02-12T05:53:32;99562.19;;;2.05;98.22
65756;BME280;52489;47.502;18.940;2023-02-12T05:54:35;99558.63;;;1.99;98.19
65756;BME280;52489;47.502;18.940;2023-02-12T05:55:38;99560.19;;;2.00;98.60
65756;BME280;52489;47.502;18.940;2023-02-12T05:56:44;99557.03;;;2.05;98.63
65756;BME280;52489;47.502;18.940;2023-02-12T05:57:49;99560.59;;;2.04;98.54
65756;BME280;52489;47.502;18.940;2023-02-12T05:59:10;99564.56;;;2.07;98.43
65756;BME280;52489;47.502;18.940;2023-02-12T06:00:14;99561.00;;;2.08;98.79
65756;BME280;52489;47.502;18.940;2023-02-12T06:01:21;99566.13;;;2.21;98.22
65756;BME280;52489;47.502;18.940;2023-02-12T06:02:24;99571.09;;;2.16;98.16
65756;BME280;52489;47.502;18.940;2023-02-12T06:03:27;99570.69;;;2.19;98.16
65756;BME280;52489;47.502;18.940;2023-02-12T06:04:30;99570.88;;;2.24;97.97
65756;BME280;52489;47.502;18.940;2023-02-12T06:05:33;99573.87;;;2.21;98.02
65756;BME280;52489;47.502;18.940;2023-02-12T06:06:35;99580.44;;;2.23;97.88
65756;BME280;52489;47.502;18.940;2023-02-12T06:07:38;99581.84;;;2.26;97.73
65756;BME280;52489;47.502;18.940;2023-02-12T06:08:42;99572.31;;;2.20;97.78
65756;BME280;52489;47.502;18.940;2023-02-12T06:09:45;99584.03;;;2.16;98.27
65756;BME280;52489;47.502;18.940;2023-02-12T06:10:48;99575.69;;;2.14;98.41
65756;BME280;52489;47.502;18.940;2023-02-12T06:11:51;99574.50;;;2.16;98.38
65756;BME280;52489;47.502;18.940;2023-02-12T06:12:54;99580.66;;;2.22;98.21
65756;BME280;52489;47.502;18.940;2023-02-12T06:14:01;99587.19;;;2.24;97.89
65756;BME280;52489;47.502;18.940;2023-02-12T06:15:04;99583.38;;;2.34;97.27
65756;BME280;52489;47.502;18.940;2023-02-12T06:16:22;99580.81;;;2.34;97.16
65756;BME280;52489;47.502;18.940;2023-02-12T06:17:26;99583.19;;;2.35;96.91
65756;BME280;52489;47.502;18.940;2023-02-12T06:18:29;99587.38;;;2.30;97.00
65756;BME280;52489;47.502;18.940;2023-02-12T06:19:33;99594.53;;;2.27;97.08
65756;BME280;52489;47.502;18.940;2023-02-12T06:20:37;99590.19;;;2.21;97.21
65756;BME280;52489;47.502;18.940;2023-02-12T06:21:41;99590.00;;;2.23;97.32
65756;BME280;52489;47.502;18.940;2023-02-12T06:22:44;99596.72;;;2.37;96.74
65756;BME280;52489;47.502;18.940;2023-02-12T06:23:48;99600.13;;;2.31;96.66
65756;BME280;52489;47.502;18.940;2023-02-12T06:24:51;99602.66;;;2.44;96.47
65756;BME280;52489;47.502;18.940;2023-02-12T06:25:57;99598.91;;;2.40;96.19
65756;BME280;52489;47.502;18.940;2023-02-12T06:27:00;99594.53;;;2.41;96.16
65756;BME280;52489;47.502;18.940;2023-02-12T06:28:03;99597.53;;;2.38;96.19
65756;BME280;52489;47.502;18.940;2023-02-12T06:29:06;99606.66;;;2.34;96.26
65756;BME280;52489;47.502;18.940;2023-02-12T06:30:10;99594.94;;;2.38;96.45
65756;BME280;52489;47.502;18.940;2023-02-12T06:31:19;99601.88;;;2.44;96.37
65756;BME280;52489;47.502;18.940;2023-02-12T06:32:22;99600.50;;;2.35;96.24